createdAt,value
2018-03-15T00:00:39.527Z,0
2018-03-15T00:01:19.171Z,0
2018-03-15T00:01:59.739Z,0
2018-03-15T00:02:39.974Z,0
2018-03-15T00:03:20.944Z,0
2018-03-15T00:04:01.030Z,0
2018-03-15T00:04:41.456Z,0
2018-03-15T00:05:21.937Z,0
2018-03-15T00:06:02.392Z,0
2018-03-15T00:06:42.701Z,0
2018-03-15T00:07:23.122Z,0
2018-03-15T00:08:03.585Z,0
2018-03-15T00:08:43.920Z,0
2018-03-15T00:09:24.317Z,0
2018-03-15T00:10:04.703Z,0
2018-03-15T00:10:45.152Z,0
2018-03-15T00:11:25.547Z,0
2018-03-15T00:12:06.399Z,0
2018-03-15T00:12:46.899Z,0
2018-03-15T00:13:27.384Z,0
2018-03-15T00:14:08.512Z,0
2018-03-15T00:16:29.242Z,0
2018-03-15T00:17:08.888Z,0
2018-03-15T00:17:49.301Z,0
2018-03-15T00:18:29.662Z,0
2018-03-15T00:19:10.109Z,0
2018-03-15T00:19:50.798Z,0
2018-03-15T00:20:31.810Z,0
2018-03-15T00:21:12.642Z,0
2018-03-15T00:21:53.054Z,0
2018-03-15T00:22:33.733Z,0
2018-03-15T00:23:14.701Z,0
2018-03-15T00:23:55.047Z,0
2018-03-15T00:24:35.789Z,0
2018-03-15T00:25:15.868Z,0
2018-03-15T00:25:56.272Z,0
2018-03-15T00:26:36.668Z,0
2018-03-15T00:27:17.750Z,0
2018-03-15T00:27:58.507Z,0
2018-03-15T00:28:38.840Z,0
2018-03-15T00:29:19.225Z,0
2018-03-15T00:29:59.643Z,0
2018-03-15T00:30:40.129Z,0
2018-03-15T00:31:20.476Z,0
2018-03-15T00:32:00.999Z,0
2018-03-15T00:32:41.421Z,0
2018-03-15T00:33:21.819Z,0
2018-03-15T00:34:02.537Z,0
2018-03-15T00:34:43.401Z,0
2018-03-15T00:35:23.673Z,0
2018-03-15T00:36:04.301Z,0
2018-03-15T00:36:44.823Z,0
2018-03-15T00:37:25.282Z,0
2018-03-15T00:38:05.778Z,0
2018-03-15T00:38:46.188Z,0
2018-03-15T00:39:26.558Z,0
2018-03-15T00:40:07.081Z,0
2018-03-15T00:40:47.480Z,0
2018-03-15T00:41:27.853Z,0
2018-03-15T00:42:09.231Z,0
2018-03-15T00:42:50.431Z,0
2018-03-15T00:43:31.054Z,0
2018-03-15T00:44:11.805Z,0
2018-03-15T00:44:52.140Z,0
2018-03-15T00:45:33.139Z,0
2018-03-15T00:46:13.647Z,0
2018-03-15T00:46:53.945Z,0
2018-03-15T00:47:34.617Z,0
2018-03-15T00:48:15.049Z,0
2018-03-15T00:48:55.691Z,0
2018-03-15T00:49:36.041Z,0
2018-03-15T00:50:16.432Z,0
2018-03-15T00:50:57.228Z,0
2018-03-15T00:51:37.634Z,0
2018-03-15T00:52:18.431Z,0
2018-03-15T00:52:58.680Z,0
2018-03-15T00:53:39.177Z,0
2018-03-15T00:54:19.515Z,0
2018-03-15T00:55:00.377Z,0
2018-03-15T00:55:40.755Z,0
2018-03-15T00:56:21.164Z,0
2018-03-15T00:57:01.869Z,0
2018-03-15T00:57:42.322Z,0
2018-03-15T00:58:22.785Z,0
2018-03-15T00:59:03.467Z,0
2018-03-15T00:59:43.901Z,0
2018-03-15T01:00:24.700Z,0
2018-03-15T01:01:05.570Z,0
2018-03-15T01:01:46.031Z,0
2018-03-15T01:02:26.390Z,0
2018-03-15T01:03:07.046Z,0
2018-03-15T01:03:47.702Z,0
2018-03-15T01:04:27.954Z,0
2018-03-15T01:05:08.481Z,0
2018-03-15T01:05:49.035Z,0
2018-03-15T01:06:29.576Z,0
2018-03-15T01:07:09.994Z,0
2018-03-15T01:07:50.680Z,0
2018-03-15T01:08:31.019Z,0
2018-03-15T01:09:11.651Z,0
2018-03-15T01:09:51.845Z,0
2018-03-15T01:10:32.249Z,0
2018-03-15T01:11:12.647Z,0
2018-03-15T01:11:53.071Z,0
2018-03-15T01:12:33.470Z,0
2018-03-15T01:13:14.116Z,0
2018-03-15T01:16:31.649Z,0
2018-03-15T01:17:12.155Z,0
2018-03-15T01:17:52.628Z,0
2018-03-15T01:18:32.956Z,0
2018-03-15T01:19:13.375Z,0
2018-03-15T01:19:54.360Z,0
2018-03-15T01:20:34.749Z,0
2018-03-15T01:21:15.175Z,0
2018-03-15T01:21:55.507Z,0
2018-03-15T01:22:36.001Z,0
2018-03-15T01:23:16.312Z,0
2018-03-15T01:23:56.761Z,0
2018-03-15T01:24:37.320Z,0
2018-03-15T01:25:17.730Z,0
2018-03-15T01:25:58.087Z,0
2018-03-15T01:26:38.556Z,0
2018-03-15T01:27:19.311Z,0
2018-03-15T01:27:59.412Z,0
2018-03-15T01:28:39.912Z,0
2018-03-15T01:29:20.577Z,0
2018-03-15T01:30:01.207Z,0
2018-03-15T01:30:41.612Z,0
2018-03-15T01:31:22.109Z,0
2018-03-15T01:32:02.643Z,0
2018-03-15T01:32:43.074Z,0
2018-03-15T01:34:56.072Z,0
2018-03-15T01:35:36.486Z,0
2018-03-15T01:36:16.833Z,0
2018-03-15T01:36:57.245Z,0
2018-03-15T01:37:37.621Z,0
2018-03-15T01:38:18.027Z,0
2018-03-15T01:38:58.517Z,0
2018-03-15T01:39:38.938Z,0
2018-03-15T01:40:19.239Z,0
2018-03-15T01:40:59.644Z,0
2018-03-15T01:41:40.045Z,0
2018-03-15T01:42:20.461Z,0
2018-03-15T01:43:00.866Z,0
2018-03-15T01:43:41.222Z,0
2018-03-15T01:44:21.593Z,0
2018-03-15T01:45:02.039Z,0
2018-03-15T01:45:42.420Z,0
2018-03-15T01:46:22.871Z,0
2018-03-15T01:47:03.177Z,0
2018-03-15T01:47:43.592Z,0
2018-03-15T01:48:23.945Z,0
2018-03-15T01:49:04.329Z,0
2018-03-15T01:49:44.749Z,0
2018-03-15T01:50:25.168Z,0
2018-03-15T01:51:05.601Z,0
2018-03-15T01:51:46.006Z,0
2018-03-15T01:52:26.371Z,0
2018-03-15T01:53:06.794Z,0
2018-03-15T01:53:47.192Z,0
2018-03-15T01:54:27.598Z,0
2018-03-15T01:55:07.972Z,0
2018-03-15T01:55:48.347Z,0
2018-03-15T01:56:28.759Z,0
2018-03-15T01:57:09.183Z,0
2018-03-15T01:57:49.550Z,0
2018-03-15T01:58:29.966Z,0
2018-03-15T01:59:10.315Z,0
2018-03-15T01:59:50.723Z,0
2018-03-15T02:00:31.133Z,0
2018-03-15T02:01:11.540Z,0
2018-03-15T02:01:51.905Z,0
2018-03-15T02:02:32.319Z,0
2018-03-15T02:03:12.696Z,0
2018-03-15T02:03:53.080Z,0
2018-03-15T02:04:33.489Z,0
2018-03-15T02:05:13.902Z,0
2018-03-15T02:05:54.259Z,0
2018-03-15T02:06:34.635Z,0
2018-03-15T02:07:15.023Z,0
2018-03-15T02:07:55.427Z,0
2018-03-15T02:08:35.821Z,0
2018-03-15T02:09:16.176Z,0
2018-03-15T02:09:56.572Z,0
2018-03-15T02:10:36.958Z,0
2018-03-15T02:11:17.358Z,0
2018-03-15T02:11:57.798Z,0
2018-03-15T02:12:38.157Z,0
2018-03-15T02:13:18.565Z,0
2018-03-15T02:13:58.995Z,0
2018-03-15T02:14:39.371Z,0
2018-03-15T02:15:19.782Z,0
2018-03-15T02:16:00.151Z,0
2018-03-15T02:16:40.523Z,0
2018-03-15T02:17:20.972Z,0
2018-03-15T02:18:01.290Z,0
2018-03-15T02:18:41.708Z,0
2018-03-15T02:19:22.112Z,0
2018-03-15T02:20:02.463Z,0
2018-03-15T02:20:42.908Z,0
2018-03-15T02:21:23.264Z,0
2018-03-15T02:22:03.764Z,0
2018-03-15T02:22:44.055Z,0
2018-03-15T02:23:24.504Z,0
2018-03-15T02:24:04.852Z,0
2018-03-15T02:24:45.240Z,0
2018-03-15T02:25:25.636Z,0
2018-03-15T02:26:06.020Z,0
2018-03-15T02:26:46.419Z,0
2018-03-15T02:27:26.793Z,0
2018-03-15T02:28:07.201Z,0
2018-03-15T02:28:47.585Z,0
2018-03-15T02:29:28.008Z,0
2018-03-15T02:30:08.370Z,0
2018-03-15T02:30:48.757Z,0
2018-03-15T02:31:29.147Z,0
2018-03-15T02:32:09.552Z,0
2018-03-15T02:32:49.924Z,0
2018-03-15T02:33:30.369Z,0
2018-03-15T02:35:50.332Z,0
2018-03-15T02:36:30.853Z,0
2018-03-15T02:37:11.064Z,0
2018-03-15T02:37:52.158Z,0
2018-03-15T02:38:33.172Z,0
2018-03-15T02:39:14.408Z,0
2018-03-15T02:39:56.479Z,0
2018-03-15T02:40:37.427Z,0
2018-03-15T02:41:18.436Z,0
2018-03-15T02:42:00.466Z,0
2018-03-15T02:42:57.097Z,0
2018-03-15T02:43:40.189Z,0
2018-03-15T02:44:22.259Z,0
2018-03-15T02:45:03.737Z,0
2018-03-15T02:45:44.337Z,0
2018-03-15T02:46:24.773Z,0
2018-03-15T02:47:06.082Z,0
2018-03-15T02:47:48.226Z,0
2018-03-15T02:48:28.602Z,0
2018-03-15T02:49:09.889Z,0
2018-03-15T02:49:52.621Z,0
2018-03-15T02:50:33.392Z,0
2018-03-15T02:51:14.749Z,0
2018-03-15T02:51:55.794Z,0
2018-03-15T02:52:37.658Z,0
2018-03-15T02:53:19.838Z,0
2018-03-15T02:54:01.016Z,0
2018-03-15T02:54:42.753Z,0
2018-03-15T02:55:25.687Z,0
2018-03-15T02:56:09.077Z,0
2018-03-15T02:56:51.126Z,0
2018-03-15T02:57:33.496Z,0
2018-03-15T02:58:14.889Z,0
2018-03-15T03:04:57.479Z,0
2018-03-15T03:05:38.035Z,0
2018-03-15T03:06:18.429Z,0
2018-03-15T03:06:59.948Z,0
2018-03-15T03:07:41.117Z,0
2018-03-15T03:08:22.116Z,0
2018-03-15T03:09:03.188Z,0
2018-03-15T03:09:43.619Z,0
2018-03-15T03:10:24.309Z,0
2018-03-15T03:11:05.950Z,0
2018-03-15T03:11:46.500Z,0
2018-03-15T03:12:27.080Z,0
2018-03-15T03:13:07.794Z,0
2018-03-15T03:13:48.132Z,0
2018-03-15T03:14:28.666Z,0
2018-03-15T03:15:09.868Z,0
2018-03-15T03:15:51.218Z,0
2018-03-15T03:16:31.817Z,0
2018-03-15T03:17:12.400Z,0
2018-03-15T03:17:53.002Z,0
2018-03-15T03:18:33.748Z,0
2018-03-15T03:19:14.652Z,0
2018-03-15T03:19:55.027Z,0
2018-03-15T03:20:35.553Z,0
2018-03-15T03:21:16.182Z,0
2018-03-15T03:21:57.281Z,0
2018-03-15T03:22:38.857Z,0
2018-03-15T03:23:19.873Z,0
2018-03-15T03:24:00.874Z,0
2018-03-15T03:24:42.156Z,0
2018-03-15T03:25:22.636Z,0
2018-03-15T03:26:03.257Z,0
2018-03-15T03:26:43.668Z,0
2018-03-15T03:27:24.975Z,0
2018-03-15T03:28:05.559Z,0
2018-03-15T03:28:46.321Z,0
2018-03-15T03:29:27.632Z,0
2018-03-15T03:30:07.736Z,0
2018-03-15T03:30:48.984Z,0
2018-03-15T03:31:30.098Z,0
2018-03-15T03:32:10.491Z,0
2018-03-15T03:32:51.178Z,0
2018-03-15T03:33:32.022Z,0
2018-03-15T03:34:12.735Z,0
2018-03-15T03:34:55.317Z,0
2018-03-15T03:35:35.858Z,0
2018-03-15T03:36:16.008Z,0
2018-03-15T03:36:59.015Z,0
2018-03-15T03:43:43.733Z,0
2018-03-15T03:44:24.132Z,0
2018-03-15T03:45:04.585Z,0
2018-03-15T03:45:45.221Z,0
2018-03-15T03:46:25.552Z,0
2018-03-15T03:50:07.274Z,0
2018-03-15T03:50:47.677Z,0
2018-03-15T03:51:28.159Z,0
2018-03-15T03:52:09.744Z,0
2018-03-15T03:52:50.268Z,0
2018-03-15T03:53:31.316Z,0
2018-03-15T03:54:11.924Z,0
2018-03-15T03:54:52.234Z,0
2018-03-15T03:55:32.690Z,0
2018-03-15T03:56:13.053Z,0
2018-03-15T03:56:53.588Z,0
2018-03-15T03:57:34.257Z,0
2018-03-15T03:58:14.721Z,0
2018-03-15T03:58:55.146Z,0
2018-03-15T03:59:35.437Z,0
2018-03-15T04:00:15.924Z,0
2018-03-15T04:00:56.495Z,0
2018-03-15T04:01:37.254Z,0
2018-03-15T04:02:17.717Z,0
2018-03-15T04:02:58.147Z,0
2018-03-15T04:03:38.675Z,0
2018-03-15T04:04:19.083Z,0
2018-03-15T04:04:59.424Z,0
2018-03-15T04:05:39.886Z,0
2018-03-15T04:06:20.275Z,0
2018-03-15T04:07:00.719Z,0
2018-03-15T04:07:41.238Z,0
2018-03-15T04:50:13.018Z,0
2018-03-15T04:50:53.592Z,0
2018-03-15T04:51:34.216Z,0
2018-03-15T04:52:14.333Z,0
2018-03-15T04:52:54.744Z,0
2018-03-15T04:53:35.571Z,0
2018-03-15T04:54:16.770Z,0
2018-03-15T04:54:56.413Z,0
2018-03-15T04:55:37.209Z,0
2018-03-15T04:56:17.669Z,0
2018-03-15T04:56:58.224Z,0
2018-03-15T04:59:32.360Z,0
2018-03-15T05:00:12.730Z,0
2018-03-15T05:00:53.129Z,0
2018-03-15T05:01:33.568Z,0
2018-03-15T05:02:13.972Z,0
2018-03-15T05:02:54.360Z,0
2018-03-15T05:03:34.746Z,0
2018-03-15T05:04:15.177Z,0
2018-03-15T05:04:55.552Z,0
2018-03-15T05:05:35.957Z,0
2018-03-15T05:06:16.338Z,0
2018-03-15T05:06:56.807Z,0
2018-03-15T05:07:37.223Z,0
2018-03-15T05:08:17.618Z,0
2018-03-15T05:08:57.981Z,0
2018-03-15T05:09:38.514Z,0
2018-03-15T05:10:18.909Z,0
2018-03-15T05:10:59.278Z,0
2018-03-15T05:11:39.709Z,0
2018-03-15T05:12:20.078Z,0
2018-03-15T05:13:00.499Z,0
2018-03-15T05:13:40.927Z,0
2018-03-15T05:14:21.311Z,0
2018-03-15T05:15:01.706Z,0
2018-03-15T05:15:42.106Z,0
2018-03-15T05:16:22.501Z,0
2018-03-15T05:17:02.888Z,0
2018-03-15T05:17:43.331Z,0
2018-03-15T05:18:23.687Z,0
2018-03-15T05:19:04.110Z,0
2018-03-15T05:19:44.470Z,0
2018-03-15T05:20:24.828Z,0
2018-03-15T05:21:05.292Z,0
2018-03-15T05:21:45.642Z,0
2018-03-15T05:22:26.044Z,0
2018-03-15T05:23:06.418Z,0
2018-03-15T05:23:46.845Z,0
2018-03-15T05:24:27.282Z,0
2018-03-15T05:25:07.790Z,0
2018-03-15T05:25:48.245Z,0
2018-03-15T05:26:28.579Z,0
2018-03-15T05:27:08.981Z,0
2018-03-15T05:27:49.412Z,0
2018-03-15T05:28:29.805Z,0
2018-03-15T05:29:10.187Z,0
2018-03-15T05:29:50.639Z,0
2018-03-15T05:30:31.053Z,0
2018-03-15T05:31:11.403Z,0
2018-03-15T05:31:51.793Z,0
2018-03-15T05:32:32.298Z,0
2018-03-15T05:33:12.659Z,0
2018-03-15T05:33:53.008Z,0
2018-03-15T05:34:33.443Z,0
2018-03-15T05:35:13.881Z,0
2018-03-15T05:35:54.283Z,0
2018-03-15T05:36:34.677Z,5
2018-03-15T05:37:15.063Z,5
2018-03-15T05:37:55.460Z,5
2018-03-15T05:38:35.842Z,5
2018-03-15T05:39:16.273Z,5
2018-03-15T05:39:56.634Z,5
2018-03-15T05:40:37.049Z,5
2018-03-15T05:41:17.447Z,5
2018-03-15T05:41:57.869Z,5
2018-03-15T05:42:38.270Z,5
2018-03-15T05:43:18.645Z,5
2018-03-15T05:43:59.029Z,5
2018-03-15T05:44:39.437Z,5
2018-03-15T05:45:19.827Z,5
2018-03-15T05:46:00.178Z,5
2018-03-15T05:46:40.673Z,5
2018-03-15T05:47:21.070Z,5
2018-03-15T05:48:01.469Z,5
2018-03-15T05:48:41.905Z,5
2018-03-15T05:49:22.320Z,5
2018-03-15T05:50:02.715Z,5
2018-03-15T05:50:43.072Z,5
2018-03-15T06:01:19.038Z,25
2018-03-15T06:01:59.412Z,35
2018-03-15T06:02:39.854Z,40
2018-03-15T06:03:20.247Z,40
2018-03-15T06:04:00.586Z,45
2018-03-15T06:04:41.010Z,50
2018-03-15T06:05:21.400Z,50
2018-03-15T06:06:01.804Z,55
2018-03-15T06:06:42.211Z,60
2018-03-15T06:07:22.568Z,65
2018-03-15T06:08:03.021Z,65
2018-03-15T06:08:43.356Z,70
2018-03-15T06:09:23.789Z,75
2018-03-15T06:10:04.217Z,80
2018-03-15T06:10:44.606Z,90
2018-03-15T06:11:24.973Z,95
2018-03-15T06:12:05.391Z,95
2018-03-15T06:12:45.789Z,85
2018-03-15T06:13:26.179Z,75
2018-03-15T06:14:06.613Z,80
2018-03-15T06:14:47.009Z,85
2018-03-15T06:15:27.386Z,90
2018-03-15T06:16:07.828Z,80
2018-03-15T06:16:48.197Z,75
2018-03-15T06:18:48.145Z,105
2018-03-15T06:19:28.552Z,115
2018-03-15T06:20:09.026Z,125
2018-03-15T06:20:49.413Z,125
2018-03-15T06:23:02.282Z,125
2018-03-15T06:23:42.661Z,145
2018-03-15T06:24:23.091Z,155
2018-03-15T06:25:03.405Z,170
2018-03-15T06:25:43.865Z,150
2018-03-15T06:26:24.183Z,110
2018-03-15T06:27:04.612Z,85
2018-03-15T06:27:45.003Z,90
2018-03-15T06:28:25.412Z,105
2018-03-15T06:29:05.866Z,105
2018-03-15T06:29:46.271Z,110
2018-03-15T06:30:26.682Z,120
2018-03-15T06:31:07.057Z,130
2018-03-15T06:31:47.483Z,150
2018-03-15T06:32:27.912Z,180
2018-03-15T06:33:08.340Z,195
2018-03-15T06:33:48.699Z,220
2018-03-15T06:34:30.492Z,245
2018-03-15T06:35:10.925Z,265
2018-03-15T06:35:51.304Z,265
2018-03-15T06:36:31.681Z,240
2018-03-15T06:37:12.072Z,165
2018-03-15T06:37:52.522Z,90
2018-03-15T06:38:33.021Z,55
2018-03-15T06:39:13.394Z,45
2018-03-15T06:39:53.858Z,40
2018-03-15T06:40:34.404Z,35
2018-03-15T06:41:14.907Z,35
2018-03-15T06:41:55.398Z,30
2018-03-15T06:42:35.740Z,30
2018-03-15T06:45:05.895Z,30
2018-03-15T06:45:47.063Z,30
2018-03-15T06:46:26.791Z,30
2018-03-15T06:47:07.960Z,30
2018-03-15T06:47:48.049Z,35
2018-03-15T06:48:28.736Z,35
2018-03-15T06:49:08.902Z,40
2018-03-15T06:49:49.431Z,45
2018-03-15T06:50:30.819Z,55
2018-03-15T06:52:49.469Z,95
2018-03-15T06:53:29.776Z,110
2018-03-15T06:54:10.144Z,130
2018-03-15T06:54:50.598Z,160
2018-03-15T06:55:30.991Z,205
2018-03-15T06:56:11.427Z,275
2018-03-15T06:56:51.871Z,330
2018-03-15T06:57:32.209Z,395
2018-03-15T06:58:12.704Z,430
2018-03-15T06:58:53.044Z,455
2018-03-15T06:59:33.450Z,470
2018-03-15T07:00:14.144Z,490
2018-03-15T07:00:54.472Z,480
2018-03-15T07:01:34.886Z,460
2018-03-15T07:02:15.248Z,370
2018-03-15T07:02:55.671Z,245
2018-03-15T07:03:36.103Z,180
2018-03-15T07:04:16.512Z,175
2018-03-15T07:04:56.860Z,165
2018-03-15T07:05:37.301Z,165
2018-03-15T07:06:17.625Z,165
2018-03-15T07:06:58.077Z,165
2018-03-15T07:07:38.456Z,160
2018-03-15T07:08:18.899Z,165
2018-03-15T07:08:59.334Z,155
2018-03-15T07:09:39.898Z,155
2018-03-15T07:10:20.275Z,150
2018-03-15T07:11:00.695Z,160
2018-03-15T07:11:41.186Z,160
2018-03-15T07:12:21.612Z,165
2018-03-15T07:13:02.051Z,160
2018-03-15T07:13:42.518Z,155
2018-03-15T07:14:22.938Z,155
2018-03-15T07:15:03.378Z,150
2018-03-15T07:15:43.741Z,155
2018-03-15T07:16:24.185Z,150
2018-03-15T07:17:04.567Z,140
2018-03-15T07:17:45.067Z,145
2018-03-15T07:18:25.451Z,150
2018-03-15T07:19:05.868Z,150
2018-03-15T07:20:00.900Z,140
2018-03-15T07:20:41.350Z,135
2018-03-15T07:21:21.806Z,135
2018-03-15T07:22:02.175Z,140
2018-03-15T07:22:42.667Z,150
2018-03-15T07:23:23.043Z,160
2018-03-15T07:24:03.434Z,160
2018-03-15T07:24:43.864Z,155
2018-03-15T07:25:24.204Z,155
2018-03-15T07:26:04.616Z,150
2018-03-15T07:26:45.004Z,110
2018-03-15T07:27:25.476Z,85
2018-03-15T07:28:05.907Z,90
2018-03-15T07:28:46.337Z,85
2018-03-15T07:29:27.090Z,90
2018-03-15T07:30:08.789Z,110
2018-03-15T07:32:22.087Z,120
2018-03-15T07:33:02.479Z,125
2018-03-15T07:33:42.918Z,125
2018-03-15T07:34:23.307Z,125
2018-03-15T07:35:03.712Z,130
2018-03-15T07:35:44.118Z,115
2018-03-15T07:36:24.443Z,110
2018-03-15T07:37:04.902Z,110
2018-03-15T07:37:45.308Z,105
2018-03-15T07:38:25.703Z,105
2018-03-15T07:39:06.080Z,100
2018-03-15T07:39:46.508Z,100
2018-03-15T07:40:26.878Z,100
2018-03-15T07:41:07.272Z,95
2018-03-15T07:41:47.707Z,95
2018-03-15T07:42:28.154Z,90
2018-03-15T07:43:08.522Z,90
2018-03-15T07:43:48.977Z,85
2018-03-15T07:44:29.355Z,90
2018-03-15T07:45:09.772Z,90
2018-03-15T07:45:50.180Z,85
2018-03-15T07:46:30.593Z,85
2018-03-15T07:47:10.982Z,85
2018-03-15T07:47:51.456Z,85
2018-03-15T07:48:31.818Z,85
2018-03-15T07:49:12.221Z,90
2018-03-15T07:49:52.669Z,90
2018-03-15T07:50:33.028Z,95
2018-03-15T07:51:13.413Z,95
2018-03-15T07:51:54.192Z,95
2018-03-15T07:52:34.586Z,95
2018-03-15T07:53:14.987Z,90
2018-03-15T07:53:55.499Z,95
2018-03-15T07:54:35.865Z,95
2018-03-15T07:55:16.258Z,90
2018-03-15T07:55:56.698Z,90
2018-03-15T07:56:37.151Z,90
2018-03-15T07:57:17.599Z,90
2018-03-15T07:57:58.060Z,90
2018-03-15T07:58:38.412Z,85
2018-03-15T07:59:18.817Z,85
2018-03-15T07:59:59.314Z,85
2018-03-15T08:00:39.750Z,85
2018-03-15T08:01:20.255Z,80
2018-03-15T08:02:00.672Z,80
2018-03-15T08:02:41.181Z,80
2018-03-15T08:03:21.602Z,80
2018-03-15T08:04:02.101Z,75
2018-03-15T08:04:42.469Z,75
2018-03-15T08:05:22.943Z,75
2018-03-15T08:06:03.360Z,80
2018-03-15T08:06:43.731Z,75
2018-03-15T08:07:24.196Z,75
2018-03-15T08:08:04.642Z,80
2018-03-15T08:08:45.062Z,75
2018-03-15T08:09:25.500Z,75
2018-03-15T08:10:06.259Z,75
2018-03-15T08:10:47.193Z,80
2018-03-15T08:11:27.537Z,80
2018-03-15T08:15:03.028Z,90
2018-03-15T08:15:43.929Z,90
2018-03-15T08:16:24.400Z,90
2018-03-15T08:17:04.920Z,90
2018-03-15T08:17:45.491Z,90
2018-03-15T08:18:26.185Z,90
2018-03-15T08:19:06.790Z,90
2018-03-15T08:19:47.149Z,90
2018-03-15T08:20:27.770Z,95
2018-03-15T08:21:08.060Z,95
2018-03-15T08:21:48.409Z,95
2018-03-15T08:22:28.866Z,95
2018-03-15T08:23:09.408Z,95
2018-03-15T08:23:50.178Z,95
2018-03-15T08:24:31.366Z,95
2018-03-15T08:25:11.304Z,95
2018-03-15T08:25:52.498Z,95
2018-03-15T08:26:33.015Z,95
2018-03-15T08:27:13.339Z,95
2018-03-15T08:27:54.186Z,95
2018-03-15T08:28:34.633Z,95
2018-03-15T08:29:15.019Z,90
2018-03-15T08:29:55.467Z,90
2018-03-15T08:30:38.350Z,90
2018-03-15T08:31:19.732Z,90
2018-03-15T08:32:01.384Z,85
2018-03-15T08:32:42.469Z,85
2018-03-15T08:33:22.752Z,85
2018-03-15T08:34:03.037Z,85
2018-03-15T08:34:43.482Z,80
2018-03-15T08:35:24.218Z,80
2018-03-15T08:36:05.151Z,80
2018-03-15T08:36:45.747Z,85
2018-03-15T08:37:27.059Z,80
2018-03-15T08:38:07.403Z,85
2018-03-15T08:38:47.781Z,80
2018-03-15T08:39:28.345Z,85
2018-03-15T08:40:09.678Z,80
2018-03-15T08:40:50.061Z,80
2018-03-15T08:41:30.577Z,85
2018-03-15T08:42:10.964Z,80
2018-03-15T08:42:51.464Z,80
2018-03-15T08:43:32.061Z,80
2018-03-15T08:44:12.491Z,80
2018-03-15T08:44:53.877Z,80
2018-03-15T08:45:33.949Z,80
2018-03-15T08:46:14.290Z,80
2018-03-15T08:46:55.624Z,80
2018-03-15T08:47:36.511Z,80
2018-03-15T08:48:17.926Z,80
2018-03-15T08:48:58.478Z,85
2018-03-15T08:49:39.775Z,80
2018-03-15T08:50:21.049Z,80
2018-03-15T08:51:01.510Z,80
2018-03-15T08:51:42.235Z,80
2018-03-15T08:52:22.571Z,85
2018-03-15T08:53:04.005Z,80
2018-03-15T08:53:44.199Z,85
2018-03-15T08:54:24.552Z,85
2018-03-15T08:55:04.978Z,80
2018-03-15T08:55:45.497Z,80
2018-03-15T08:56:25.952Z,80
2018-03-15T08:57:06.382Z,80
2018-03-15T08:57:46.864Z,85
2018-03-15T08:58:27.970Z,85
2018-03-15T08:59:09.393Z,85
2018-03-15T08:59:49.492Z,85
2018-03-15T09:00:30.026Z,85
2018-03-15T09:01:10.492Z,85
2018-03-15T09:01:50.937Z,85
2018-03-15T09:02:31.295Z,85
2018-03-15T09:03:12.001Z,85
2018-03-15T09:03:52.564Z,85
2018-03-15T09:04:33.057Z,85
2018-03-15T09:05:13.619Z,85
2018-03-15T09:05:55.405Z,85
2018-03-15T09:06:35.412Z,85
2018-03-15T09:07:15.893Z,85
2018-03-15T09:07:56.613Z,85
2018-03-15T09:08:36.926Z,85
2018-03-15T09:09:17.330Z,85
2018-03-15T09:09:57.791Z,85
2018-03-15T09:10:38.325Z,85
2018-03-15T09:11:18.788Z,85
2018-03-15T09:11:59.216Z,85
2018-03-15T09:12:39.745Z,85
2018-03-15T09:13:20.279Z,85
2018-03-15T09:14:01.436Z,85
2018-03-15T09:14:41.930Z,85
2018-03-15T09:15:22.397Z,85
2018-03-15T09:16:03.831Z,85
2018-03-15T09:16:44.265Z,85
2018-03-15T09:17:24.764Z,85
2018-03-15T09:18:05.365Z,85
2018-03-15T09:18:45.934Z,80
2018-03-15T09:19:26.210Z,80
2018-03-15T09:20:07.564Z,80
2018-03-15T09:20:48.098Z,80
2018-03-15T09:21:28.619Z,80
2018-03-15T09:22:09.904Z,80
2018-03-15T09:22:51.520Z,80
2018-03-15T09:23:32.155Z,80
2018-03-15T09:24:12.698Z,80
2018-03-15T09:24:53.938Z,80
2018-03-15T09:25:35.614Z,80
2018-03-15T09:26:16.112Z,80
2018-03-15T09:26:56.505Z,80
2018-03-15T09:27:36.999Z,80
2018-03-15T09:28:17.639Z,80
2018-03-15T09:28:58.943Z,80
2018-03-15T09:29:39.886Z,80
2018-03-15T09:30:20.439Z,80
2018-03-15T09:31:02.058Z,80
2018-03-15T09:31:42.097Z,80
2018-03-15T09:32:22.615Z,80
2018-03-15T09:33:02.971Z,75
2018-03-15T09:33:43.672Z,75
2018-03-15T09:34:24.481Z,80
2018-03-15T09:35:05.034Z,80
2018-03-15T09:35:45.341Z,80
2018-03-15T09:36:26.038Z,75
2018-03-15T09:37:06.444Z,75
2018-03-15T09:37:48.061Z,75
2018-03-15T09:38:28.930Z,75
2018-03-15T09:39:09.279Z,75
2018-03-15T09:39:51.896Z,75
2018-03-15T09:40:30.946Z,75
2018-03-15T09:41:11.434Z,75
2018-03-15T09:41:51.994Z,75
2018-03-15T09:42:32.936Z,75
2018-03-15T09:43:13.944Z,75
2018-03-15T09:43:54.690Z,75
2018-03-15T09:44:36.201Z,75
2018-03-15T09:45:16.746Z,75
2018-03-15T09:45:59.273Z,75
2018-03-15T09:46:41.610Z,75
2018-03-15T09:47:22.475Z,75
2018-03-15T09:48:03.391Z,75
2018-03-15T09:48:43.922Z,75
2018-03-15T09:49:24.642Z,75
2018-03-15T09:50:05.079Z,75
2018-03-15T09:50:45.508Z,75
2018-03-15T09:51:25.923Z,75
2018-03-15T09:52:06.393Z,75
2018-03-15T09:52:46.891Z,75
2018-03-15T09:53:28.190Z,75
2018-03-15T09:54:08.752Z,75
2018-03-15T09:54:49.451Z,75
2018-03-15T09:55:30.117Z,75
2018-03-15T09:56:10.468Z,70
2018-03-15T09:56:51.365Z,75
2018-03-15T09:57:32.312Z,75
2018-03-15T09:58:12.975Z,75
2018-03-15T09:58:53.350Z,75
2018-03-15T09:59:33.916Z,70
2018-03-15T10:00:14.548Z,70
2018-03-15T10:00:54.773Z,70
2018-03-15T10:01:35.286Z,70
2018-03-15T10:02:16.011Z,70
2018-03-15T10:02:56.417Z,70
2018-03-15T10:03:36.791Z,70
2018-03-15T10:04:17.291Z,70
2018-03-15T10:04:58.686Z,70
2018-03-15T10:05:39.210Z,70
2018-03-15T10:06:20.114Z,70
2018-03-15T10:07:01.299Z,75
2018-03-15T10:07:41.828Z,75
2018-03-15T10:08:22.185Z,70
2018-03-15T10:09:03.465Z,75
2018-03-15T10:09:43.987Z,70
2018-03-15T10:49:35.756Z,65
2018-03-15T10:52:38.671Z,70
2018-03-15T10:53:20.099Z,65
2018-03-15T10:54:00.621Z,70
2018-03-15T10:54:41.068Z,65
2018-03-15T10:55:21.512Z,65
2018-03-15T10:56:02.089Z,70
2018-03-15T10:56:42.501Z,65
2018-03-15T10:57:23.170Z,70
2018-03-15T10:58:03.566Z,65
2018-03-15T10:58:44.034Z,65
2018-03-15T10:59:24.586Z,65
2018-03-15T11:00:05.050Z,65
2018-03-15T11:00:45.402Z,65
2018-03-15T11:01:25.947Z,65
2018-03-15T11:02:06.416Z,65
2018-03-15T11:02:46.847Z,65
2018-03-15T11:03:27.314Z,65
2018-03-15T11:04:07.812Z,65
2018-03-15T11:04:48.373Z,65
2018-03-15T11:05:29.079Z,65
2018-03-15T11:06:09.571Z,65
2018-03-15T11:06:50.060Z,65
2018-03-15T11:07:30.515Z,65
2018-03-15T11:08:11.107Z,65
2018-03-15T11:08:52.543Z,65
2018-03-15T11:09:34.495Z,65
2018-03-15T11:10:19.226Z,65
2018-03-15T11:11:03.081Z,65
2018-03-15T11:11:43.297Z,65
2018-03-15T11:12:26.780Z,65
2018-03-15T11:13:12.727Z,65
2018-03-15T11:13:53.954Z,65
2018-03-15T11:14:35.014Z,65
2018-03-15T11:15:15.901Z,65
2018-03-15T11:15:56.899Z,65
2018-03-15T11:16:37.256Z,65
2018-03-15T11:17:17.818Z,70
2018-03-15T11:17:58.725Z,65
2018-03-15T11:18:39.175Z,65
2018-03-15T11:19:19.702Z,65
2018-03-15T11:20:00.080Z,65
2018-03-15T11:20:40.568Z,65
2018-03-15T11:21:21.498Z,65
2018-03-15T11:22:01.928Z,65
2018-03-15T11:22:42.654Z,65
2018-03-15T11:23:23.539Z,65
2018-03-15T11:24:05.652Z,65
2018-03-15T11:24:48.166Z,65
2018-03-15T11:25:34.718Z,65
2018-03-15T11:26:43.903Z,65
2018-03-15T11:27:27.527Z,65
2018-03-15T11:28:10.031Z,65
2018-03-15T11:28:51.847Z,65
2018-03-15T11:30:17.948Z,60
2018-03-15T11:31:01.993Z,60
2018-03-15T11:31:46.289Z,60
2018-03-15T11:32:26.629Z,60
2018-03-15T11:33:08.819Z,60
2018-03-15T11:33:59.064Z,60
2018-03-15T11:36:28.801Z,60
2018-03-15T11:37:09.256Z,60
2018-03-15T11:37:50.082Z,55
2018-03-15T11:38:30.665Z,55
2018-03-15T11:39:11.154Z,55
2018-03-15T11:39:51.614Z,55
2018-03-15T11:40:32.499Z,55
2018-03-15T11:41:13.154Z,60
2018-03-15T11:43:51.475Z,55
2018-03-15T11:48:43.137Z,60
2018-03-15T11:49:23.813Z,60
2018-03-15T11:50:04.347Z,60
2018-03-15T11:50:46.033Z,60
2018-03-15T11:51:27.215Z,60
2018-03-15T11:52:07.911Z,60
2018-03-15T11:52:49.484Z,60
2018-03-15T11:53:30.730Z,60
2018-03-15T11:54:11.696Z,55
2018-03-15T11:54:52.290Z,55
2018-03-15T11:55:35.591Z,55
2018-03-15T11:56:16.245Z,55
2018-03-15T11:56:57.430Z,55
2018-03-15T11:57:39.010Z,55
2018-03-15T11:58:20.449Z,55
2018-03-15T11:59:00.421Z,55
2018-03-15T11:59:41.660Z,55
2018-03-15T12:00:23.791Z,55
2018-03-15T12:01:05.339Z,55
2018-03-15T12:01:46.694Z,55
2018-03-15T12:02:26.819Z,50
2018-03-15T12:03:08.150Z,50
2018-03-15T12:03:49.216Z,50
2018-03-15T12:04:31.101Z,50
2018-03-15T12:05:11.963Z,50
2018-03-15T12:05:51.804Z,50
2018-03-15T12:06:33.442Z,50